Currently 52°F in Pinon Hills, California, USA
52°F
60°F / 40°F
4 mph NW
0.00"
Thursday, April 2, 2020 6:50 PM PDT

Pinon Hills, California Weather Summary
Last 36 Hours

Temperature Winds Hourly Humidity Dewpoint
Time Report Norm Report Norm Max Gusts Precip. Rpt. Norm Rpt. Norm Pressure
1Thu 06:50 PM  52.1°F  59°F  4 mph NW  4 mph  11 mph  0.00"  37%  40%  26°F  34°F  30.03"
Thu 06:00 PM  56.6°F  62°F  8 mph W  5 mph  13 mph  0.00"  30%  36%  25°F  33°F  30.03"
Thu 05:00 PM  59.4°F  64°F  6 mph NW  4 mph  16 mph  0.00"  35%  33%  30°F  33°F  30.02"
Thu 04:00 PM  59.9°F  65°F  8 mph W  4 mph  15 mph  0.00"  35%  30%  31°F  31°F  30.03"
2Thu 03:54 PM  60.5°F  65°F  8 mph NW  4 mph  13 mph  ----  35%  30%  32°F  31°F  30.03"
Thu 03:00 PM  59.1°F  65°F  7 mph W  5 mph  15 mph  0.00"  36%  29%  31°F  31°F  30.03"
Thu 02:00 PM  57.9°F  65°F  4 mph NW  4 mph  15 mph  0.00"  36%  29%  30°F  31°F  30.04"
Thu 01:00 PM  56.0°F  64°F  5 mph NW  4 mph  15 mph  0.00"  44%  30%  33°F  31°F  30.05"
Thu 12:00 PM  52.4°F  62°F  7 mph NW  5 mph  13 mph  0.00"  50%  33%  34°F  31°F  30.05"
Thu 11:00 AM  50.2°F  60°F  5 mph NW  4 mph  13 mph  0.00"  60%  37%  36°F  32°F  30.06"
Thu 10:00 AM  48.3°F  58°F  3 mph NW  3 mph  13 mph  0.00"  77%  40%  41°F  33°F  30.04"
Thu 09:00 AM  44.8°F  56°F  6 mph NW  3 mph  9 mph  0.00"  85%  43%  40°F  33°F  30.03"
Thu 08:00 AM  41.3°F  52°F  5 mph NW  2 mph  7 mph  0.00"  94%  48%  40°F  32°F  30.02"
Thu 07:00 AM  40.1°F  47°F  4 mph NW  2 mph  7 mph  0.00"  94%  53%  38°F  30°F  30.02"
3Thu 06:58 AM  39.8°F  47°F  3 mph NW  2 mph  5 mph  ----  94%  53%  38°F  30°F  30.02"
Thu 06:00 AM  41.0°F  46°F  calm  2 mph  none  0.00"  95%  54%  40°F  30°F  30.01"
Thu 05:00 AM  42.0°F  47°F  calm  3 mph  4 mph  0.00"  96%  53%  41°F  30°F  29.99"
Thu 04:00 AM  44.2°F  47°F  2 mph W  3 mph  8 mph  0.00"  96%  53%  43°F  30°F  29.98"
Thu 03:00 AM  45.1°F  48°F  2 mph NW  2 mph  8 mph  0.00"  96%  53%  44°F  31°F  29.99"
Thu 02:00 AM  45.4°F  48°F  1 mph SW  2 mph  7 mph  0.00"  95%  52%  44°F  31°F  29.99"
Thu 01:00 AM  44.6°F  49°F  calm  3 mph  5 mph  0.00"  95%  51%  43°F  31°F  29.98"
Thu 12:00 AM  44.8°F  49°F  2 mph SW  2 mph  4 mph  0.00"  93%  51%  43°F  31°F  29.98"
Wed 11:00 PM  44.8°F  50°F  calm  3 mph  4 mph  0.00"  90%  49%  42°F  31°F  29.97"
Wed 10:00 PM  46.0°F  52°F  calm  3 mph  none  0.00"  87%  47%  42°F  31°F  29.97"
Wed 09:00 PM  47.9°F  52°F  calm  3 mph  4 mph  0.00"  83%  48%  43°F  32°F  29.97"
Wed 08:00 PM  52.8°F  54°F  calm  3 mph  10 mph  0.00"  74%  45%  45°F  32°F  29.95"
Wed 07:00 PM  57.0°F  58°F  5 mph NW  3 mph  16 mph  0.00"  65%  40%  45°F  32°F  29.93"
Wed 06:00 PM  62.9°F  62°F  10 mph NW  5 mph  19 mph  0.00"  48%  34%  42°F  32°F  29.93"
Wed 05:00 PM  65.1°F  64°F  1 mph N  4 mph  16 mph  0.00"  44%  32%  42°F  32°F  29.93"
Wed 04:00 PM  67.3°F  64°F  calm  4 mph  17 mph  0.00"  30%  29%  34°F  31°F  29.93"
Wed 03:00 PM  69.1°F  65°F  calm  5 mph  22 mph  0.00"  23%  29%  28°F  30°F  29.93"
Wed 02:00 PM  69.1°F  64°F  7 mph NW  4 mph  22 mph  0.00"  22%  29%  27°F  30°F  29.95"
Wed 01:00 PM  69.3°F  63°F  14 mph SW  4 mph  22 mph  0.00"  21%  30%  26°F  30°F  29.95"
Wed 12:00 PM  66.4°F  61°F  8 mph NW  4 mph  17 mph  0.00"  32%  33%  34°F  31°F  29.97"
Wed 11:00 AM  63.7°F  59°F  calm  4 mph  12 mph  0.00"  36%  37%  36°F  32°F  29.99"
Wed 10:00 AM  58.9°F  57°F  calm  3 mph  6 mph  0.00"  49%  40%  39°F  32°F  30.01"
Wed 09:00 AM  56.8°F  55°F  calm  3 mph  none  0.00"  49%  43%  37°F  32°F  30.00"
Wed 08:00 AM  50.9°F  51°F  calm  2 mph  6 mph  0.00"  55%  48%  35°F  32°F  30.00"
Wed 07:00 AM  45.0°F  46°F  2 mph W  3 mph  6 mph  0.00"  57%  54%  30°F  30°F  29.99"

  1. Current weather data. No green row appears if the current weather data is also the high or low for the current day.
  2. High temperature for the current day.
  3. Low temperature for the current day.

The Pinon Hills, California weather pages are a service of WeatherCurrents.
Copyright ©2020  WeatherCurrents. All rights reserved. - Submit questions and comments - Privacy Policy

This page automatically refreshes every 10 minutes.